sensor_id;sensor_type;location;lat;lon;timestamp;P1;durP1;ratioP1;P2;durP2;ratioP2
4323;SDS011;2175;51.018;6.994;2023-04-15T00:00:05;8.13;;;4.20;;
4323;SDS011;2175;51.018;6.994;2023-04-15T00:02:32;8.47;;;4.03;;
4323;SDS011;2175;51.018;6.994;2023-04-15T00:04:57;6.50;;;3.57;;
4323;SDS011;2175;51.018;6.994;2023-04-15T00:07:23;9.13;;;3.80;;
4323;SDS011;2175;51.018;6.994;2023-04-15T00:09:48;7.40;;;3.83;;
4323;SDS011;2175;51.018;6.994;2023-04-15T00:12:14;10.53;;;3.90;;
4323;SDS011;2175;51.018;6.994;2023-04-15T00:14:40;9.90;;;4.47;;
4323;SDS011;2175;51.018;6.994;2023-04-15T00:17:05;7.23;;;3.63;;
4323;SDS011;2175;51.018;6.994;2023-04-15T00:19:31;7.53;;;3.70;;
4323;SDS011;2175;51.018;6.994;2023-04-15T00:21:57;11.13;;;4.10;;
4323;SDS011;2175;51.018;6.994;2023-04-15T00:24:23;7.83;;;4.13;;
4323;SDS011;2175;51.018;6.994;2023-04-15T00:26:53;13.13;;;4.27;;
4323;SDS011;2175;51.018;6.994;2023-04-15T00:30:01;15.20;;;4.30;;
4323;SDS011;2175;51.018;6.994;2023-04-15T00:32:35;6.40;;;3.93;;
4323;SDS011;2175;51.018;6.994;2023-04-15T00:35:03;9.17;;;3.80;;
4323;SDS011;2175;51.018;6.994;2023-04-15T00:37:29;9.83;;;4.03;;
4323;SDS011;2175;51.018;6.994;2023-04-15T00:40:00;8.60;;;4.20;;
4323;SDS011;2175;51.018;6.994;2023-04-15T00:42:25;16.67;;;4.20;;
4323;SDS011;2175;51.018;6.994;2023-04-15T00:44:52;8.93;;;4.70;;
4323;SDS011;2175;51.018;6.994;2023-04-15T00:47:19;6.67;;;4.00;;
4323;SDS011;2175;51.018;6.994;2023-04-15T00:49:48;11.60;;;4.20;;
4323;SDS011;2175;51.018;6.994;2023-04-15T00:52:14;7.97;;;4.03;;
4323;SDS011;2175;51.018;6.994;2023-04-15T00:54:40;9.40;;;3.70;;
4323;SDS011;2175;51.018;6.994;2023-04-15T00:57:05;10.80;;;4.33;;
4323;SDS011;2175;51.018;6.994;2023-04-15T00:59:32;10.60;;;4.43;;
4323;SDS011;2175;51.018;6.994;2023-04-15T01:01:59;13.37;;;4.20;;
4323;SDS011;2175;51.018;6.994;2023-04-15T01:04:25;9.53;;;4.17;;
4323;SDS011;2175;51.018;6.994;2023-04-15T01:06:51;10.13;;;4.50;;
4323;SDS011;2175;51.018;6.994;2023-04-15T01:09:16;6.53;;;3.93;;
4323;SDS011;2175;51.018;6.994;2023-04-15T01:11:42;7.60;;;4.10;;
4323;SDS011;2175;51.018;6.994;2023-04-15T01:14:08;10.47;;;4.70;;
4323;SDS011;2175;51.018;6.994;2023-04-15T01:16:35;11.87;;;4.23;;
4323;SDS011;2175;51.018;6.994;2023-04-15T01:19:04;12.13;;;5.10;;
4323;SDS011;2175;51.018;6.994;2023-04-15T01:21:33;10.03;;;4.63;;
4323;SDS011;2175;51.018;6.994;2023-04-15T01:24:03;8.53;;;4.07;;
4323;SDS011;2175;51.018;6.994;2023-04-15T01:26:33;11.80;;;4.50;;
4323;SDS011;2175;51.018;6.994;2023-04-15T01:29:01;7.47;;;3.83;;
4323;SDS011;2175;51.018;6.994;2023-04-15T01:31:27;8.20;;;4.27;;
4323;SDS011;2175;51.018;6.994;2023-04-15T01:33:53;16.80;;;5.00;;
4323;SDS011;2175;51.018;6.994;2023-04-15T01:36:18;7.60;;;4.63;;
4323;SDS011;2175;51.018;6.994;2023-04-15T01:38:44;14.33;;;5.00;;
4323;SDS011;2175;51.018;6.994;2023-04-15T01:41:10;13.97;;;4.97;;
4323;SDS011;2175;51.018;6.994;2023-04-15T01:43:35;7.13;;;4.30;;
4323;SDS011;2175;51.018;6.994;2023-04-15T01:46:01;9.10;;;4.10;;
4323;SDS011;2175;51.018;6.994;2023-04-15T01:48:29;8.07;;;4.30;;
4323;SDS011;2175;51.018;6.994;2023-04-15T01:50:57;8.57;;;4.53;;
4323;SDS011;2175;51.018;6.994;2023-04-15T01:53:23;7.83;;;4.10;;
4323;SDS011;2175;51.018;6.994;2023-04-15T01:55:50;10.13;;;4.30;;
4323;SDS011;2175;51.018;6.994;2023-04-15T01:58:19;9.63;;;4.67;;
4323;SDS011;2175;51.018;6.994;2023-04-15T02:00:55;7.43;;;4.33;;
4323;SDS011;2175;51.018;6.994;2023-04-15T02:03:36;12.40;;;4.90;;
4323;SDS011;2175;51.018;6.994;2023-04-15T02:06:33;10.80;;;4.77;;
4323;SDS011;2175;51.018;6.994;2023-04-15T02:09:05;9.10;;;4.50;;
4323;SDS011;2175;51.018;6.994;2023-04-15T02:11:49;8.43;;;4.60;;
4323;SDS011;2175;51.018;6.994;2023-04-15T02:14:28;9.73;;;4.73;;
4323;SDS011;2175;51.018;6.994;2023-04-15T02:16:57;8.87;;;4.30;;
4323;SDS011;2175;51.018;6.994;2023-04-15T02:19:35;11.20;;;5.17;;
4323;SDS011;2175;51.018;6.994;2023-04-15T02:22:07;7.53;;;5.23;;
4323;SDS011;2175;51.018;6.994;2023-04-15T02:24:36;7.87;;;4.70;;
4323;SDS011;2175;51.018;6.994;2023-04-15T02:27:09;10.20;;;4.53;;
4323;SDS011;2175;51.018;6.994;2023-04-15T02:30:02;9.33;;;4.97;;
4323;SDS011;2175;51.018;6.994;2023-04-15T02:32:28;7.80;;;4.70;;
4323;SDS011;2175;51.018;6.994;2023-04-15T02:34:53;8.90;;;4.67;;
4323;SDS011;2175;51.018;6.994;2023-04-15T02:37:19;9.43;;;5.30;;
4323;SDS011;2175;51.018;6.994;2023-04-15T02:39:45;10.63;;;5.70;;
4323;SDS011;2175;51.018;6.994;2023-04-15T02:42:11;9.40;;;5.60;;
4323;SDS011;2175;51.018;6.994;2023-04-15T02:44:37;10.90;;;5.70;;
4323;SDS011;2175;51.018;6.994;2023-04-15T02:47:02;9.87;;;6.00;;
4323;SDS011;2175;51.018;6.994;2023-04-15T02:49:30;14.67;;;5.80;;
4323;SDS011;2175;51.018;6.994;2023-04-15T02:51:56;9.77;;;5.23;;
4323;SDS011;2175;51.018;6.994;2023-04-15T02:54:22;14.13;;;6.10;;
4323;SDS011;2175;51.018;6.994;2023-04-15T02:56:48;13.00;;;5.63;;
4323;SDS011;2175;51.018;6.994;2023-04-15T02:59:14;10.63;;;5.80;;
4323;SDS011;2175;51.018;6.994;2023-04-15T03:01:40;10.83;;;5.97;;
4323;SDS011;2175;51.018;6.994;2023-04-15T03:04:06;9.90;;;5.73;;
4323;SDS011;2175;51.018;6.994;2023-04-15T03:06:32;8.80;;;5.60;;
4323;SDS011;2175;51.018;6.994;2023-04-15T03:08:59;13.73;;;6.13;;
4323;SDS011;2175;51.018;6.994;2023-04-15T03:11:26;9.70;;;5.70;;
4323;SDS011;2175;51.018;6.994;2023-04-15T03:13:52;17.53;;;6.80;;
4323;SDS011;2175;51.018;6.994;2023-04-15T03:16:18;13.77;;;5.90;;
4323;SDS011;2175;51.018;6.994;2023-04-15T03:18:43;10.13;;;5.70;;
4323;SDS011;2175;51.018;6.994;2023-04-15T03:21:09;8.20;;;5.60;;
4323;SDS011;2175;51.018;6.994;2023-04-15T03:23:34;14.47;;;6.00;;
4323;SDS011;2175;51.018;6.994;2023-04-15T03:26:00;9.20;;;6.23;;
4323;SDS011;2175;51.018;6.994;2023-04-15T03:28:26;9.67;;;7.00;;
4323;SDS011;2175;51.018;6.994;2023-04-15T03:30:53;11.60;;;5.93;;
4323;SDS011;2175;51.018;6.994;2023-04-15T03:33:19;17.17;;;7.40;;
4323;SDS011;2175;51.018;6.994;2023-04-15T03:35:45;9.70;;;6.03;;
4323;SDS011;2175;51.018;6.994;2023-04-15T03:38:10;9.60;;;5.30;;
4323;SDS011;2175;51.018;6.994;2023-04-15T03:40:37;10.33;;;6.23;;
4323;SDS011;2175;51.018;6.994;2023-04-15T03:43:03;10.03;;;5.40;;
4323;SDS011;2175;51.018;6.994;2023-04-15T03:45:28;12.33;;;6.53;;
4323;SDS011;2175;51.018;6.994;2023-04-15T03:47:54;8.87;;;6.50;;
4323;SDS011;2175;51.018;6.994;2023-04-15T03:50:20;9.60;;;6.90;;
4323;SDS011;2175;51.018;6.994;2023-04-15T03:52:45;12.97;;;6.97;;
4323;SDS011;2175;51.018;6.994;2023-04-15T03:55:11;12.80;;;6.73;;
4323;SDS011;2175;51.018;6.994;2023-04-15T03:57:37;12.90;;;6.57;;
4323;SDS011;2175;51.018;6.994;2023-04-15T04:00:04;13.83;;;6.80;;
4323;SDS011;2175;51.018;6.994;2023-04-15T04:02:30;13.20;;;6.07;;
4323;SDS011;2175;51.018;6.994;2023-04-15T04:04:56;13.83;;;7.20;;
4323;SDS011;2175;51.018;6.994;2023-04-15T04:07:22;11.63;;;6.40;;
4323;SDS011;2175;51.018;6.994;2023-04-15T04:09:48;11.23;;;6.57;;
4323;SDS011;2175;51.018;6.994;2023-04-15T04:12:14;11.30;;;7.20;;
4323;SDS011;2175;51.018;6.994;2023-04-15T04:14:40;10.63;;;6.33;;
4323;SDS011;2175;51.018;6.994;2023-04-15T04:17:05;16.90;;;6.53;;
4323;SDS011;2175;51.018;6.994;2023-04-15T04:19:31;11.00;;;6.30;;
4323;SDS011;2175;51.018;6.994;2023-04-15T04:21:57;13.93;;;5.93;;
4323;SDS011;2175;51.018;6.994;2023-04-15T04:24:22;9.80;;;6.60;;
4323;SDS011;2175;51.018;6.994;2023-04-15T04:26:48;20.43;;;5.93;;
4323;SDS011;2175;51.018;6.994;2023-04-15T04:29:14;10.90;;;6.90;;
4323;SDS011;2175;51.018;6.994;2023-04-15T04:31:39;9.63;;;6.10;;
4323;SDS011;2175;51.018;6.994;2023-04-15T04:34:05;12.00;;;7.00;;
4323;SDS011;2175;51.018;6.994;2023-04-15T04:36:31;11.30;;;6.27;;
4323;SDS011;2175;51.018;6.994;2023-04-15T04:38:56;8.53;;;5.90;;
4323;SDS011;2175;51.018;6.994;2023-04-15T04:41:22;12.47;;;6.83;;
4323;SDS011;2175;51.018;6.994;2023-04-15T04:43:47;12.33;;;6.43;;
4323;SDS011;2175;51.018;6.994;2023-04-15T04:46:13;15.90;;;6.80;;
4323;SDS011;2175;51.018;6.994;2023-04-15T04:48:39;9.77;;;6.57;;
4323;SDS011;2175;51.018;6.994;2023-04-15T04:51:05;9.00;;;6.20;;
4323;SDS011;2175;51.018;6.994;2023-04-15T04:53:31;12.20;;;6.80;;
4323;SDS011;2175;51.018;6.994;2023-04-15T04:55:57;14.50;;;6.80;;
4323;SDS011;2175;51.018;6.994;2023-04-15T04:58:23;13.20;;;5.73;;
4323;SDS011;2175;51.018;6.994;2023-04-15T05:00:50;10.40;;;5.83;;
4323;SDS011;2175;51.018;6.994;2023-04-15T05:03:15;11.60;;;6.80;;
4323;SDS011;2175;51.018;6.994;2023-04-15T05:05:41;9.13;;;6.33;;
4323;SDS011;2175;51.018;6.994;2023-04-15T05:08:07;11.40;;;6.20;;
4323;SDS011;2175;51.018;6.994;2023-04-15T05:10:33;14.00;;;7.20;;
4323;SDS011;2175;51.018;6.994;2023-04-15T05:12:58;13.00;;;6.80;;
4323;SDS011;2175;51.018;6.994;2023-04-15T05:15:24;13.17;;;7.77;;
4323;SDS011;2175;51.018;6.994;2023-04-15T05:17:50;13.63;;;7.50;;
4323;SDS011;2175;51.018;6.994;2023-04-15T05:20:15;13.43;;;6.53;;
4323;SDS011;2175;51.018;6.994;2023-04-15T05:22:41;13.23;;;7.30;;
4323;SDS011;2175;51.018;6.994;2023-04-15T05:25:07;9.50;;;6.80;;
4323;SDS011;2175;51.018;6.994;2023-04-15T05:27:33;11.52;;;7.60;;
4323;SDS011;2175;51.018;6.994;2023-04-15T05:29:59;12.00;;;7.10;;
4323;SDS011;2175;51.018;6.994;2023-04-15T05:32:25;10.67;;;6.80;;
4323;SDS011;2175;51.018;6.994;2023-04-15T05:34:50;10.20;;;7.13;;
4323;SDS011;2175;51.018;6.994;2023-04-15T05:37:16;10.50;;;7.37;;
4323;SDS011;2175;51.018;6.994;2023-04-15T05:39:44;13.40;;;6.60;;
4323;SDS011;2175;51.018;6.994;2023-04-15T05:42:10;13.17;;;6.63;;
4323;SDS011;2175;51.018;6.994;2023-04-15T05:44:36;12.30;;;7.17;;
4323;SDS011;2175;51.018;6.994;2023-04-15T05:47:01;11.07;;;6.40;;
4323;SDS011;2175;51.018;6.994;2023-04-15T05:49:27;7.27;;;6.03;;
4323;SDS011;2175;51.018;6.994;2023-04-15T05:51:53;10.57;;;6.90;;
4323;SDS011;2175;51.018;6.994;2023-04-15T05:54:19;10.80;;;6.87;;
4323;SDS011;2175;51.018;6.994;2023-04-15T05:56:47;13.10;;;7.37;;
4323;SDS011;2175;51.018;6.994;2023-04-15T05:59:13;10.90;;;6.70;;
4323;SDS011;2175;51.018;6.994;2023-04-15T06:01:38;12.03;;;7.20;;
4323;SDS011;2175;51.018;6.994;2023-04-15T06:04:04;12.50;;;7.00;;
4323;SDS011;2175;51.018;6.994;2023-04-15T06:06:30;13.10;;;7.30;;
4323;SDS011;2175;51.018;6.994;2023-04-15T06:08:56;13.47;;;8.17;;
4323;SDS011;2175;51.018;6.994;2023-04-15T06:11:22;12.17;;;7.40;;
4323;SDS011;2175;51.018;6.994;2023-04-15T06:13:48;12.50;;;6.90;;
4323;SDS011;2175;51.018;6.994;2023-04-15T06:16:13;11.77;;;7.30;;
4323;SDS011;2175;51.018;6.994;2023-04-15T06:18:39;12.60;;;7.40;;
4323;SDS011;2175;51.018;6.994;2023-04-15T06:21:05;16.27;;;7.60;;
4323;SDS011;2175;51.018;6.994;2023-04-15T06:23:33;14.23;;;7.33;;
4323;SDS011;2175;51.018;6.994;2023-04-15T06:26:00;17.30;;;8.87;;
4323;SDS011;2175;51.018;6.994;2023-04-15T06:28:26;11.83;;;7.33;;
4323;SDS011;2175;51.018;6.994;2023-04-15T06:30:52;13.07;;;7.07;;
4323;SDS011;2175;51.018;6.994;2023-04-15T06:33:18;23.23;;;8.50;;
4323;SDS011;2175;51.018;6.994;2023-04-15T06:35:44;16.10;;;8.90;;
4323;SDS011;2175;51.018;6.994;2023-04-15T06:38:09;12.33;;;7.40;;
4323;SDS011;2175;51.018;6.994;2023-04-15T06:40:35;12.17;;;8.17;;
4323;SDS011;2175;51.018;6.994;2023-04-15T06:43:00;18.60;;;8.10;;
4323;SDS011;2175;51.018;6.994;2023-04-15T06:45:26;14.87;;;8.37;;
4323;SDS011;2175;51.018;6.994;2023-04-15T06:47:52;12.80;;;8.60;;
4323;SDS011;2175;51.018;6.994;2023-04-15T06:50:17;13.27;;;8.33;;
4323;SDS011;2175;51.018;6.994;2023-04-15T06:52:43;18.27;;;9.30;;
4323;SDS011;2175;51.018;6.994;2023-04-15T06:55:08;14.23;;;8.40;;
4323;SDS011;2175;51.018;6.994;2023-04-15T06:57:34;13.40;;;8.37;;
4323;SDS011;2175;51.018;6.994;2023-04-15T07:00:00;16.10;;;8.80;;
4323;SDS011;2175;51.018;6.994;2023-04-15T07:02:26;17.23;;;9.00;;
4323;SDS011;2175;51.018;6.994;2023-04-15T07:04:52;17.63;;;8.80;;
4323;SDS011;2175;51.018;6.994;2023-04-15T07:07:17;13.43;;;8.77;;
4323;SDS011;2175;51.018;6.994;2023-04-15T07:09:43;15.20;;;8.47;;
4323;SDS011;2175;51.018;6.994;2023-04-15T07:12:09;15.03;;;8.87;;
4323;SDS011;2175;51.018;6.994;2023-04-15T07:14:35;18.90;;;9.10;;
4323;SDS011;2175;51.018;6.994;2023-04-15T07:17:01;15.43;;;8.87;;
4323;SDS011;2175;51.018;6.994;2023-04-15T07:19:27;13.30;;;9.40;;
4323;SDS011;2175;51.018;6.994;2023-04-15T07:21:52;15.30;;;8.20;;
4323;SDS011;2175;51.018;6.994;2023-04-15T07:24:18;12.90;;;8.00;;
4323;SDS011;2175;51.018;6.994;2023-04-15T07:26:44;12.47;;;8.77;;
4323;SDS011;2175;51.018;6.994;2023-04-15T07:29:10;11.93;;;8.40;;
4323;SDS011;2175;51.018;6.994;2023-04-15T07:31:36;14.90;;;7.70;;
4323;SDS011;2175;51.018;6.994;2023-04-15T07:34:02;9.87;;;6.13;;
4323;SDS011;2175;51.018;6.994;2023-04-15T07:36:29;9.60;;;5.70;;
4323;SDS011;2175;51.018;6.994;2023-04-15T07:38:55;6.60;;;4.93;;
4323;SDS011;2175;51.018;6.994;2023-04-15T07:41:22;10.73;;;4.50;;
4323;SDS011;2175;51.018;6.994;2023-04-15T07:43:47;7.40;;;4.63;;
4323;SDS011;2175;51.018;6.994;2023-04-15T07:46:14;7.27;;;4.60;;
4323;SDS011;2175;51.018;6.994;2023-04-15T07:48:40;6.80;;;4.40;;
4323;SDS011;2175;51.018;6.994;2023-04-15T07:51:06;7.97;;;4.00;;
4323;SDS011;2175;51.018;6.994;2023-04-15T07:53:32;8.07;;;3.87;;
4323;SDS011;2175;51.018;6.994;2023-04-15T07:55:58;7.27;;;3.60;;
4323;SDS011;2175;51.018;6.994;2023-04-15T07:58:23;9.80;;;3.60;;
4323;SDS011;2175;51.018;6.994;2023-04-15T08:00:50;5.77;;;3.30;;
4323;SDS011;2175;51.018;6.994;2023-04-15T08:03:15;6.50;;;3.20;;
4323;SDS011;2175;51.018;6.994;2023-04-15T08:05:41;7.00;;;3.23;;
4323;SDS011;2175;51.018;6.994;2023-04-15T08:08:07;4.10;;;3.37;;
4323;SDS011;2175;51.018;6.994;2023-04-15T08:10:32;4.70;;;3.07;;
4323;SDS011;2175;51.018;6.994;2023-04-15T08:12:58;5.10;;;3.00;;
4323;SDS011;2175;51.018;6.994;2023-04-15T08:15:26;2.97;;;2.60;;
4323;SDS011;2175;51.018;6.994;2023-04-15T08:17:52;4.03;;;2.53;;
4323;SDS011;2175;51.018;6.994;2023-04-15T08:20:18;4.30;;;2.70;;
4323;SDS011;2175;51.018;6.994;2023-04-15T08:22:43;4.60;;;2.47;;
4323;SDS011;2175;51.018;6.994;2023-04-15T08:25:10;6.20;;;2.60;;
4323;SDS011;2175;51.018;6.994;2023-04-15T08:27:36;3.47;;;2.40;;
4323;SDS011;2175;51.018;6.994;2023-04-15T08:30:01;4.13;;;2.80;;
4323;SDS011;2175;51.018;6.994;2023-04-15T08:32:27;3.30;;;2.47;;
4323;SDS011;2175;51.018;6.994;2023-04-15T08:34:53;3.63;;;2.60;;
4323;SDS011;2175;51.018;6.994;2023-04-15T08:37:18;3.30;;;2.80;;
4323;SDS011;2175;51.018;6.994;2023-04-15T08:39:44;6.20;;;3.13;;
4323;SDS011;2175;51.018;6.994;2023-04-15T08:42:11;3.67;;;2.70;;
4323;SDS011;2175;51.018;6.994;2023-04-15T08:44:41;4.47;;;2.57;;
4323;SDS011;2175;51.018;6.994;2023-04-15T08:47:08;4.07;;;2.93;;
4323;SDS011;2175;51.018;6.994;2023-04-15T08:49:40;6.70;;;3.17;;
4323;SDS011;2175;51.018;6.994;2023-04-15T08:52:07;3.87;;;2.77;;
4323;SDS011;2175;51.018;6.994;2023-04-15T08:54:33;6.63;;;3.00;;
4323;SDS011;2175;51.018;6.994;2023-04-15T08:57:00;4.93;;;2.50;;
4323;SDS011;2175;51.018;6.994;2023-04-15T08:59:26;6.10;;;2.70;;
4323;SDS011;2175;51.018;6.994;2023-04-15T09:01:54;4.37;;;3.00;;
4323;SDS011;2175;51.018;6.994;2023-04-15T09:04:21;3.43;;;2.83;;
4323;SDS011;2175;51.018;6.994;2023-04-15T09:06:46;8.20;;;3.50;;
4323;SDS011;2175;51.018;6.994;2023-04-15T09:09:12;4.50;;;2.93;;
4323;SDS011;2175;51.018;6.994;2023-04-15T09:11:40;6.37;;;3.00;;
4323;SDS011;2175;51.018;6.994;2023-04-15T09:14:06;4.33;;;2.97;;
4323;SDS011;2175;51.018;6.994;2023-04-15T09:16:54;3.80;;;2.87;;
4323;SDS011;2175;51.018;6.994;2023-04-15T09:19:25;5.00;;;3.27;;
4323;SDS011;2175;51.018;6.994;2023-04-15T09:21:54;5.73;;;3.40;;
4323;SDS011;2175;51.018;6.994;2023-04-15T09:24:22;4.10;;;3.03;;
4323;SDS011;2175;51.018;6.994;2023-04-15T09:26:51;5.87;;;3.00;;
4323;SDS011;2175;51.018;6.994;2023-04-15T09:29:18;5.43;;;3.00;;
4323;SDS011;2175;51.018;6.994;2023-04-15T09:31:45;9.80;;;3.70;;
4323;SDS011;2175;51.018;6.994;2023-04-15T09:34:11;3.07;;;2.57;;
4323;SDS011;2175;51.018;6.994;2023-04-15T09:39:11;3.70;;;2.67;;
4323;SDS011;2175;51.018;6.994;2023-04-15T09:41:37;5.80;;;3.17;;
4323;SDS011;2175;51.018;6.994;2023-04-15T09:44:04;3.30;;;2.70;;
4323;SDS011;2175;51.018;6.994;2023-04-15T09:46:40;3.40;;;2.30;;
4323;SDS011;2175;51.018;6.994;2023-04-15T09:49:07;5.03;;;2.93;;
4323;SDS011;2175;51.018;6.994;2023-04-15T09:51:34;3.70;;;2.73;;
4323;SDS011;2175;51.018;6.994;2023-04-15T09:54:00;4.07;;;3.33;;
4323;SDS011;2175;51.018;6.994;2023-04-15T09:56:31;3.30;;;2.83;;
4323;SDS011;2175;51.018;6.994;2023-04-15T09:59:01;10.60;;;3.70;;
4323;SDS011;2175;51.018;6.994;2023-04-15T10:01:27;5.00;;;3.60;;
4323;SDS011;2175;51.018;6.994;2023-04-15T10:03:53;4.70;;;3.70;;
4323;SDS011;2175;51.018;6.994;2023-04-15T10:06:22;8.47;;;4.60;;
4323;SDS011;2175;51.018;6.994;2023-04-15T10:08:50;5.00;;;4.33;;
4323;SDS011;2175;51.018;6.994;2023-04-15T10:11:17;4.57;;;4.07;;
4323;SDS011;2175;51.018;6.994;2023-04-15T10:13:45;7.07;;;4.77;;
4323;SDS011;2175;51.018;6.994;2023-04-15T10:16:13;8.50;;;5.00;;
4323;SDS011;2175;51.018;6.994;2023-04-15T10:18:45;6.53;;;4.33;;
4323;SDS011;2175;51.018;6.994;2023-04-15T10:21:15;5.23;;;4.20;;
4323;SDS011;2175;51.018;6.994;2023-04-15T10:23:43;5.00;;;4.10;;
4323;SDS011;2175;51.018;6.994;2023-04-15T10:26:10;6.80;;;4.17;;
4323;SDS011;2175;51.018;6.994;2023-04-15T10:28:39;6.90;;;4.17;;
4323;SDS011;2175;51.018;6.994;2023-04-15T10:31:05;5.90;;;4.13;;
4323;SDS011;2175;51.018;6.994;2023-04-15T10:33:31;4.83;;;3.60;;
4323;SDS011;2175;51.018;6.994;2023-04-15T10:35:58;4.90;;;3.90;;
4323;SDS011;2175;51.018;6.994;2023-04-15T10:38:41;5.27;;;4.03;;
4323;SDS011;2175;51.018;6.994;2023-04-15T10:41:11;4.93;;;4.10;;
4323;SDS011;2175;51.018;6.994;2023-04-15T10:46:17;5.87;;;4.13;;
4323;SDS011;2175;51.018;6.994;2023-04-15T10:48:48;6.07;;;4.00;;
4323;SDS011;2175;51.018;6.994;2023-04-15T10:51:15;4.90;;;3.93;;
4323;SDS011;2175;51.018;6.994;2023-04-15T10:53:50;5.70;;;4.33;;
4323;SDS011;2175;51.018;6.994;2023-04-15T10:56:19;5.87;;;4.20;;
4323;SDS011;2175;51.018;6.994;2023-04-15T10:58:45;4.07;;;3.67;;
4323;SDS011;2175;51.018;6.994;2023-04-15T11:01:11;4.37;;;3.97;;
4323;SDS011;2175;51.018;6.994;2023-04-15T11:03:38;4.50;;;3.50;;
4323;SDS011;2175;51.018;6.994;2023-04-15T11:06:06;4.73;;;3.60;;
4323;SDS011;2175;51.018;6.994;2023-04-15T11:14:31;9.83;;;3.50;;
4323;SDS011;2175;51.018;6.994;2023-04-15T11:16:58;3.47;;;2.70;;
4323;SDS011;2175;51.018;6.994;2023-04-15T11:19:24;5.17;;;3.10;;
4323;SDS011;2175;51.018;6.994;2023-04-15T11:21:49;4.00;;;3.10;;
4323;SDS011;2175;51.018;6.994;2023-04-15T11:24:34;3.67;;;2.80;;
4323;SDS011;2175;51.018;6.994;2023-04-15T11:27:00;7.50;;;3.20;;
4323;SDS011;2175;51.018;6.994;2023-04-15T11:29:32;6.73;;;3.20;;
4323;SDS011;2175;51.018;6.994;2023-04-15T11:32:04;4.90;;;3.63;;
4323;SDS011;2175;51.018;6.994;2023-04-15T11:34:33;4.00;;;3.40;;
4323;SDS011;2175;51.018;6.994;2023-04-15T11:37:02;6.13;;;3.67;;
4323;SDS011;2175;51.018;6.994;2023-04-15T11:39:30;4.40;;;3.67;;
4323;SDS011;2175;51.018;6.994;2023-04-15T11:41:55;5.60;;;3.73;;
4323;SDS011;2175;51.018;6.994;2023-04-15T11:44:21;3.90;;;3.50;;
4323;SDS011;2175;51.018;6.994;2023-04-15T11:46:47;4.13;;;3.27;;
4323;SDS011;2175;51.018;6.994;2023-04-15T11:49:24;4.30;;;3.37;;
4323;SDS011;2175;51.018;6.994;2023-04-15T11:51:51;3.33;;;3.03;;
4323;SDS011;2175;51.018;6.994;2023-04-15T11:54:20;4.33;;;3.17;;
4323;SDS011;2175;51.018;6.994;2023-04-15T11:56:49;4.63;;;3.67;;
4323;SDS011;2175;51.018;6.994;2023-04-15T11:59:15;5.90;;;4.47;;
4323;SDS011;2175;51.018;6.994;2023-04-15T12:01:41;4.33;;;3.93;;
4323;SDS011;2175;51.018;6.994;2023-04-15T12:04:11;5.00;;;4.50;;
4323;SDS011;2175;51.018;6.994;2023-04-15T12:06:38;5.27;;;4.77;;
4323;SDS011;2175;51.018;6.994;2023-04-15T12:14:24;8.40;;;4.70;;
4323;SDS011;2175;51.018;6.994;2023-04-15T12:16:56;5.37;;;4.83;;
4323;SDS011;2175;51.018;6.994;2023-04-15T12:19:44;6.50;;;4.90;;
4323;SDS011;2175;51.018;6.994;2023-04-15T12:22:11;13.30;;;7.43;;
4323;SDS011;2175;51.018;6.994;2023-04-15T12:24:40;7.53;;;6.67;;
4323;SDS011;2175;51.018;6.994;2023-04-15T12:27:09;5.70;;;5.20;;
4323;SDS011;2175;51.018;6.994;2023-04-15T12:29:36;5.73;;;5.23;;
4323;SDS011;2175;51.018;6.994;2023-04-15T12:37:04;6.90;;;6.20;;
4323;SDS011;2175;51.018;6.994;2023-04-15T12:39:34;6.77;;;6.07;;
4323;SDS011;2175;51.018;6.994;2023-04-15T12:42:01;7.87;;;5.50;;
4323;SDS011;2175;51.018;6.994;2023-04-15T12:44:28;6.97;;;5.73;;
4323;SDS011;2175;51.018;6.994;2023-04-15T12:46:54;6.70;;;6.03;;
4323;SDS011;2175;51.018;6.994;2023-04-15T12:49:20;6.57;;;5.97;;
4323;SDS011;2175;51.018;6.994;2023-04-15T12:51:51;7.53;;;5.80;;
4323;SDS011;2175;51.018;6.994;2023-04-15T12:54:18;7.43;;;5.70;;
4323;SDS011;2175;51.018;6.994;2023-04-15T12:56:45;7.10;;;6.40;;
4323;SDS011;2175;51.018;6.994;2023-04-15T12:59:11;7.80;;;6.73;;
4323;SDS011;2175;51.018;6.994;2023-04-15T13:01:38;7.10;;;6.40;;
4323;SDS011;2175;51.018;6.994;2023-04-15T13:04:04;8.90;;;7.00;;
4323;SDS011;2175;51.018;6.994;2023-04-15T13:06:30;9.90;;;6.50;;
4323;SDS011;2175;51.018;6.994;2023-04-15T13:08:57;8.40;;;7.60;;
4323;SDS011;2175;51.018;6.994;2023-04-15T13:11:23;9.13;;;6.37;;
4323;SDS011;2175;51.018;6.994;2023-04-15T13:13:50;6.73;;;6.10;;
4323;SDS011;2175;51.018;6.994;2023-04-15T13:16:16;13.03;;;7.33;;
4323;SDS011;2175;51.018;6.994;2023-04-15T13:18:42;8.37;;;7.43;;
4323;SDS011;2175;51.018;6.994;2023-04-15T13:21:10;10.47;;;7.07;;
4323;SDS011;2175;51.018;6.994;2023-04-15T13:23:36;9.23;;;8.00;;
4323;SDS011;2175;51.018;6.994;2023-04-15T13:26:01;8.27;;;7.40;;
4323;SDS011;2175;51.018;6.994;2023-04-15T13:28:28;9.10;;;7.60;;
4323;SDS011;2175;51.018;6.994;2023-04-15T13:30:53;8.10;;;7.03;;
4323;SDS011;2175;51.018;6.994;2023-04-15T13:33:19;10.07;;;7.07;;
4323;SDS011;2175;51.018;6.994;2023-04-15T13:35:45;9.70;;;7.37;;
4323;SDS011;2175;51.018;6.994;2023-04-15T13:38:11;8.70;;;7.10;;
4323;SDS011;2175;51.018;6.994;2023-04-15T13:40:36;8.60;;;7.30;;
4323;SDS011;2175;51.018;6.994;2023-04-15T13:43:02;8.80;;;7.17;;
4323;SDS011;2175;51.018;6.994;2023-04-15T13:45:28;10.63;;;8.03;;
4323;SDS011;2175;51.018;6.994;2023-04-15T13:47:54;8.50;;;7.23;;
4323;SDS011;2175;51.018;6.994;2023-04-15T13:50:21;8.67;;;7.30;;
4323;SDS011;2175;51.018;6.994;2023-04-15T13:52:47;7.77;;;6.97;;
4323;SDS011;2175;51.018;6.994;2023-04-15T13:55:12;7.20;;;6.17;;
4323;SDS011;2175;51.018;6.994;2023-04-15T13:57:38;6.77;;;5.67;;
4323;SDS011;2175;51.018;6.994;2023-04-15T14:00:04;6.40;;;5.63;;
4323;SDS011;2175;51.018;6.994;2023-04-15T14:02:30;7.83;;;6.37;;
4323;SDS011;2175;51.018;6.994;2023-04-15T14:04:56;11.03;;;6.90;;
4323;SDS011;2175;51.018;6.994;2023-04-15T14:07:22;9.80;;;7.30;;
4323;SDS011;2175;51.018;6.994;2023-04-15T14:09:47;8.00;;;6.83;;
4323;SDS011;2175;51.018;6.994;2023-04-15T14:12:13;6.93;;;6.20;;
4323;SDS011;2175;51.018;6.994;2023-04-15T14:14:38;8.63;;;6.00;;
4323;SDS011;2175;51.018;6.994;2023-04-15T14:17:04;8.10;;;5.87;;
4323;SDS011;2175;51.018;6.994;2023-04-15T14:19:31;7.97;;;6.30;;
4323;SDS011;2175;51.018;6.994;2023-04-15T14:21:57;6.30;;;5.43;;
4323;SDS011;2175;51.018;6.994;2023-04-15T14:24:23;6.93;;;5.37;;
4323;SDS011;2175;51.018;6.994;2023-04-15T14:26:48;5.40;;;4.60;;
4323;SDS011;2175;51.018;6.994;2023-04-15T14:29:14;5.27;;;4.77;;
4323;SDS011;2175;51.018;6.994;2023-04-15T14:31:40;4.50;;;4.10;;
4323;SDS011;2175;51.018;6.994;2023-04-15T14:34:08;6.70;;;4.50;;
4323;SDS011;2175;51.018;6.994;2023-04-15T14:36:34;10.70;;;5.87;;
4323;SDS011;2175;51.018;6.994;2023-04-15T14:39:00;9.40;;;5.03;;
4323;SDS011;2175;51.018;6.994;2023-04-15T14:41:26;5.50;;;4.87;;
4323;SDS011;2175;51.018;6.994;2023-04-15T14:43:51;7.97;;;5.20;;
4323;SDS011;2175;51.018;6.994;2023-04-15T14:46:17;7.57;;;4.87;;
4323;SDS011;2175;51.018;6.994;2023-04-15T14:48:43;6.43;;;4.70;;
4323;SDS011;2175;51.018;6.994;2023-04-15T14:51:08;4.93;;;4.07;;
4323;SDS011;2175;51.018;6.994;2023-04-15T14:53:34;6.03;;;4.40;;
4323;SDS011;2175;51.018;6.994;2023-04-15T14:55:59;9.33;;;4.53;;
4323;SDS011;2175;51.018;6.994;2023-04-15T14:58:25;9.73;;;5.17;;
4323;SDS011;2175;51.018;6.994;2023-04-15T15:00:51;4.90;;;4.30;;
4323;SDS011;2175;51.018;6.994;2023-04-15T15:03:16;5.83;;;3.83;;
4323;SDS011;2175;51.018;6.994;2023-04-15T15:05:43;6.37;;;4.50;;
4323;SDS011;2175;51.018;6.994;2023-04-15T15:08:10;5.50;;;4.73;;
4323;SDS011;2175;51.018;6.994;2023-04-15T15:10:37;5.00;;;4.23;;
4323;SDS011;2175;51.018;6.994;2023-04-15T15:13:04;8.63;;;5.60;;
4323;SDS011;2175;51.018;6.994;2023-04-15T15:15:31;10.20;;;5.70;;
4323;SDS011;2175;51.018;6.994;2023-04-15T15:17:57;7.77;;;5.13;;
4323;SDS011;2175;51.018;6.994;2023-04-15T15:20:23;7.60;;;5.03;;
4323;SDS011;2175;51.018;6.994;2023-04-15T15:22:49;5.73;;;4.80;;
4323;SDS011;2175;51.018;6.994;2023-04-15T15:25:15;7.07;;;4.73;;
4323;SDS011;2175;51.018;6.994;2023-04-15T15:27:40;8.20;;;5.60;;
4323;SDS011;2175;51.018;6.994;2023-04-15T15:30:06;9.90;;;5.67;;